DW8046 Earlston UK current weather conditions

sailwx.info

Wind from 291 at 13 knots gusting 22

Air temperature 4.4° C
Dewpoint -47.3° C

Last reported at 2019-Dec-10 23:00 UTC.
Time now 2019-Dec-10 23:59 UTC

Location: N 55°41' W 002°40'.
View on Google Maps.

See reports from other nearby stations

  
Tides and Currents Weather Stations Pressure Air Temp Water Temp Dewpoint Dewpoint Depression Visibility Wind Speed Wind Dir Waves Ship Positions
date/time (UTC)wind fromknots sea level pressurealtimeterstation pressurevisibilityair tempwater tempwave heightnotes
2019-Dec-10 23:00 291 13 gusting 22 4.4
2019-Dec-10 22:49 278 14 gusting 22 4.4
2019-Dec-10 22:39 293 15 gusting 25 4.4
2019-Dec-10 22:29 291 15 gusting 25 4.4
2019-Dec-10 22:19 285 13 gusting 30 3.9
2019-Dec-10 22:09 283 19 gusting 30 3.9
2019-Dec-10 21:59 292 16 gusting 24 4.4
2019-Dec-10 21:49 291 11 gusting 19 3.9
2019-Dec-10 21:38 287 9 gusting 15 3.9
2019-Dec-10 21:28 278 12 gusting 19 3.9
2019-Dec-10 21:18 288 15 gusting 20 3.9
2019-Dec-10 21:08 290 17 gusting 24 3.9
2019-Dec-10 20:57 290 14 gusting 24 3.9
2019-Dec-10 20:47 283 13 gusting 18 3.3
2019-Dec-10 20:37 283 15 gusting 26 3.3
2019-Dec-10 20:27 273 16 gusting 26 3.3
2019-Dec-10 20:17 278 18 gusting 25 3.3
2019-Dec-10 20:06 288 11 gusting 24 3.3
2019-Dec-10 19:56 271 14 gusting 28 3.3
2019-Dec-10 19:46 288 19 gusting 28 3.9
2019-Dec-10 19:36 283 16 gusting 26 3.9
2019-Dec-10 19:26 287 15 gusting 19 3.9
2019-Dec-10 19:16 290 17 gusting 27 3.9
2019-Dec-10 19:06 298 15 gusting 25 3.9
2019-Dec-10 18:56 294 14 gusting 23 3.9
2019-Dec-10 18:46 285 14 gusting 23 4.4
2019-Dec-10 18:36 300 8 gusting 18 5.6
2019-Dec-10 18:25 293 8 gusting 16 5.6
2019-Dec-10 18:15 305 10 gusting 16 5.6
2019-Dec-10 18:04 288 11 gusting 16 5.6
2019-Dec-10 16:45 300 6.1
2019-Dec-10 16:35 294 6.1
2019-Dec-10 16:05 307 7.2
2019-Dec-10 15:55 295 19 gusting 36 7.8
2019-Dec-10 15:45 298 24 gusting 32 8.3
2019-Dec-10 15:35 282 19 gusting 27 11.7
2019-Dec-10 15:25 287 21 gusting 34 12.2
2019-Dec-10 15:14 252 19 gusting 35 12.2
2019-Dec-10 15:04 269 22 gusting 35 12.2
2019-Dec-10 14:54 264 19 gusting 32 12.2
2019-Dec-10 14:44 273 18 gusting 32 11.7
2019-Dec-10 14:34 252 18 gusting 31 11.7
2019-Dec-10 14:24 259 17 gusting 33 11.7
2019-Dec-10 14:14 262 16 gusting 33 11.7
2019-Dec-10 14:04 276 16 gusting 33 11.7
2019-Dec-10 13:54 246 17 gusting 33 11.7
2019-Dec-10 13:44 253 17 gusting 31 11.7
2019-Dec-10 13:34 245 17 gusting 31 11.1
2019-Dec-10 13:24 255 16 gusting 30 11.1
2019-Dec-10 13:14 260 18 gusting 30 11.1
2019-Dec-10 13:03 264 17 gusting 28 11.1
2019-Dec-10 12:53 266 19 gusting 32 11.1
2019-Dec-10 12:43 264 16 gusting 32 10.6
2019-Dec-10 12:33 259 13 gusting 28 10.6
2019-Dec-10 12:23 262 6 gusting 22 9.4
2019-Dec-10 12:12 252 0 gusting 8 8.3
2019-Dec-10 12:02 267 8.3
2019-Dec-10 11:52 125 7.8
2019-Dec-10 11:42 150 7.2
2019-Dec-10 11:32 178 7.2
2019-Dec-10 11:22 274 0 gusting 15 7.2
2019-Dec-10 11:12 238 2 gusting 16 7.2
2019-Dec-10 11:02 255 2 gusting 16 7.2
2019-Dec-10 10:52 172 1 gusting 13 6.7
2019-Dec-10 10:42 136 0 gusting 11 6.7
2019-Dec-10 10:32 198 6.7
2019-Dec-10 10:21 274 0 6.7
2019-Dec-10 10:11 293 6.1
2019-Dec-10 10:01 252 6.1
2019-Dec-10 09:52 269 1 gusting 15 6.1
2019-Dec-10 09:42 245 3 gusting 15 5.6
2019-Dec-10 09:32 179 5.6
2019-Dec-10 09:22 235 5.6
2019-Dec-10 09:12 279 5.6
2019-Dec-10 09:02 187 5.0
2019-Dec-10 08:52 266 0 gusting 5 5.0
2019-Dec-10 08:41 257 2 gusting 17 5.0
2019-Dec-10 08:32 211 4 gusting 17 5.0
2019-Dec-10 08:21 257 6 gusting 19 5.0
2019-Dec-10 08:11 269 8 gusting 21 5.0
2019-Dec-10 08:01 287 11 gusting 21 5.0
2019-Dec-10 07:51 253 9 gusting 19 5.0
2019-Dec-10 07:41 291 8 gusting 19 5.6
2019-Dec-10 07:31 248 10 gusting 21 5.6
2019-Dec-10 07:20 259 9 gusting 23 5.6
2019-Dec-10 07:10 238 9 gusting 26 5.6
2019-Dec-10 07:00 248 12 gusting 26 5.6
2019-Dec-10 06:49 262 11 gusting 25 6.1
2019-Dec-10 06:39 258 8 gusting 25 6.1
2019-Dec-10 06:29 295 10 gusting 19 6.1
2019-Dec-10 06:19 256 10 gusting 23 6.1
2019-Dec-10 06:08 248 11 gusting 23 6.7
2019-Dec-10 05:58 263 9 gusting 21 6.7
2019-Dec-10 05:48 245 7 gusting 23 7.2
2019-Dec-10 05:38 219 6 gusting 23 7.2
2019-Dec-10 05:28 264 9 gusting 22 7.2
2019-Dec-10 05:17 274 9 gusting 24 7.2
2019-Dec-10 05:08 273 13 gusting 25 7.2
2019-Dec-10 04:58 273 12 gusting 25 7.2
2019-Dec-10 03:59 248 6.7
2019-Dec-10 03:49 253 7 gusting 27 6.7
2019-Dec-10 03:39 263 5 gusting 17 6.7
2019-Dec-10 03:29 278 3 gusting 17 6.1
2019-Dec-10 03:18 232 5.6
2019-Dec-10 03:08 270 5.6
2019-Dec-10 02:58 198 0 gusting 0 5.6
2019-Dec-10 02:48 260 5.6
2019-Dec-10 02:38 285 5.6
2019-Dec-10 02:27 276 0 gusting 11 5.0
2019-Dec-10 02:17 256 5.0
2019-Dec-10 02:07 273 1 gusting 13 5.0
2019-Dec-10 01:58 255 0 gusting 10 5.0
2019-Dec-10 01:47 248 0 gusting 10 4.4
2019-Dec-10 01:37 253 4.4
2019-Dec-10 01:27 217 3.9
2019-Dec-10 01:17 245 3.3
2019-Dec-10 01:07 179 3.3
2019-Dec-10 00:57 221 3.9
2019-Dec-10 00:47 142 3.9
2019-Dec-10 00:36 270 3.9
2019-Dec-09 23:27 203 2.2
2019-Dec-09 23:16 236 1.7
2019-Dec-09 23:06 249 1.7
2019-Dec-09 22:56 283 1.1
2019-Dec-09 22:46 280 1.7
2019-Dec-09 22:35 280 1.1
2019-Dec-09 21:05 285 1.7
2019-Dec-09 20:55 277 1.7
2019-Dec-09 20:45 316 1.7
2019-Dec-09 20:35 316 2.2
2019-Dec-09 20:25 280 2.8
2019-Dec-09 20:14 298 2.2
2019-Dec-09 20:04 300 2.2
2019-Dec-09 18:55 302 1.7
2019-Dec-09 18:44 302 1.7
2019-Dec-09 18:34 305 2.2
2019-Dec-09 18:25 302 2.2
2019-Dec-09 18:15 304 2.2
2019-Dec-09 18:04 218 2.2
2019-Dec-09 17:55 218 2.2
2019-Dec-09 17:45 288 2.8
2019-Dec-09 17:38 293 2.2
2019-Dec-09 17:25 270 2.8
2019-Dec-09 17:15 285 2.8
2019-Dec-09 17:05 295 2.2
2019-Dec-09 16:55 288 1.7
2019-Dec-09 16:45 101 2.2
2019-Dec-09 16:35 096 2.2
2019-Dec-09 16:24 264 2.2
2019-Dec-09 16:15 264 2.2
2019-Dec-09 16:05 264 2.8
2019-Dec-09 15:54 295 2.8
2019-Dec-09 15:44 301 3.3
2019-Dec-09 15:34 314 3.3
2019-Dec-09 15:24 321 3.9
2019-Dec-09 15:14 295 4.4
2019-Dec-09 15:04 295 4.4
2019-Dec-09 14:53 284 4.4
2019-Dec-09 14:43 290 4.4
2019-Dec-09 14:32 302 5.0
2019-Dec-09 14:22 297 5.0
2019-Dec-09 14:12 300 5.0
2019-Dec-09 14:02 298 5.0
2019-Dec-09 13:52 304 5.6
2019-Dec-09 13:42 288 5.6
2019-Dec-09 13:32 293 5.6
2019-Dec-09 13:22 302 0 gusting 8 5.6
2019-Dec-09 13:12 297 0 gusting 7 5.6
2019-Dec-09 13:02 290 0 gusting 8 5.6
2019-Dec-09 12:53 303 5.6
2019-Dec-09 12:43 284 5.6
2019-Dec-09 12:33 305 5.6
2019-Dec-09 12:23 278 5.6
2019-Dec-09 12:13 295 5.6
2019-Dec-09 12:02 302 5.0
2019-Dec-09 11:52 290 5.0
2019-Dec-09 11:41 005 0 gusting 6 5.0
2019-Dec-09 11:31 299 5.0
2019-Dec-09 11:20 303 5.0
2019-Dec-09 11:10 271 4.4
2019-Dec-09 11:00 275 4.4
2019-Dec-09 10:50 304 4.4
2019-Dec-09 10:40 287 4.4
2019-Dec-09 10:30 262 4.4
2019-Dec-09 10:21 307 4.4
2019-Dec-09 10:10 283 3.9
2019-Dec-09 10:00 300 3.9
2019-Dec-09 09:50 008 3.9
2019-Dec-09 09:39 304 3.9
2019-Dec-09 09:29 276 3.9
2019-Dec-09 09:19 295 3.9
2019-Dec-09 09:09 330 3.3
2019-Dec-09 08:58 345 3.3
2019-Dec-09 08:48 338 3.3
2019-Dec-09 08:38 292 3.3
2019-Dec-09 08:27 287 3.9
2019-Dec-09 08:17 305 3.9
2019-Dec-09 08:07 302 3.9
2019-Dec-09 07:57 302 0 gusting 10 3.9
2019-Dec-09 07:47 285 3.9
2019-Dec-09 07:37 294 3.9
2019-Dec-09 07:26 276 3.9
2019-Dec-09 07:16 321 3.9
2019-Dec-09 07:06 292 4.4
2019-Dec-09 06:57 302 4.4
2019-Dec-09 06:46 288 4.4
2019-Dec-09 06:35 308 4.4
2019-Dec-09 06:26 289 4.4
2019-Dec-09 06:15 298 4.4
2019-Dec-09 06:05 312 4.4
2019-Dec-09 05:55 242 4.4
2019-Dec-09 05:45 015 4.4
2019-Dec-09 05:35 027 4.4
2019-Dec-09 05:24 294 4.4
2019-Dec-09 05:14 305 5.0
2019-Dec-09 05:05 262 5.0
2019-Dec-09 04:54 294 5.0
2019-Dec-09 04:44 285 5.0
2019-Dec-09 04:35 291 5.0
2019-Dec-09 04:25 074 5.0
2019-Dec-09 04:15 301 5.6
2019-Dec-09 04:04 358 5.6
2019-Dec-09 03:54 333 0 5.6
2019-Dec-09 03:45 330 5.6
2019-Dec-09 03:35 307 0 gusting 12 5.6
2019-Dec-09 03:24 326 1 gusting 0 5.6
2019-Dec-09 03:15 345 1 gusting 10 5.6
2019-Dec-09 03:05 290 0 gusting 9 5.6
2019-Dec-09 02:55 334 5.6
2019-Dec-09 02:44 266 0 gusting 7 5.6
2019-Dec-09 02:34 295 1 gusting 17 5.6
2019-Dec-09 02:24 304 5.6
2019-Dec-09 02:14 359 0 gusting 12 5.6
2019-Dec-09 02:04 296 0 gusting 7 5.6
2019-Dec-09 01:54 290 5.6
2019-Dec-09 01:43 292 0 gusting 10 5.0
2019-Dec-09 01:33 293 5.0
2019-Dec-09 01:22 307 4.4
2019-Dec-09 01:12 349 4.4
2019-Dec-09 01:03 288 4.4
2019-Dec-09 00:52 295 4.4
2019-Dec-09 00:42 294 5.0
2019-Dec-09 00:31 301 5.0
2019-Dec-09 00:21 289 0 gusting 9 5.0
2019-Dec-09 00:11 302 5.0
2019-Dec-08 23:51 299 5.0
2019-Dec-08 23:41 290 5.0
2019-Dec-08 23:31 300 2 gusting 12 5.0
2019-Dec-08 23:21 297 3 gusting 10 5.0
2019-Dec-08 23:11 285 4.4
2019-Dec-08 23:00 291 4.4